Time;durP1;ratioP1;P1;durP2;ratioP2;P2;SDS_P1;SDS_P2;PMS_P1;PMS_P2;Temp;Humidity;BMP_temperature;BMP_pressure;BME280_temperature;BME280_humidity;BME280_pressure;Samples;Min_cycle;Max_cycle;Signal;HPM_P1;HPM_P2
2021/12/22 00:01:27;;;;;;;;;;;;;;;-0.68;100.00;100055.38;4985669;28;21057;-77
2021/12/22 00:03:53;;;;;;;;;;;;;;;-0.76;100.00;100051.75;4983761;28;19933;-77
2021/12/22 00:06:21;;;;;;;;;;;;;;;-0.67;100.00;100048.63;4984314;28;19918;-76
2021/12/22 00:08:47;;;;;;;;;;;;;;;-0.98;100.00;100050.25;4986393;28;19917;-77
2021/12/22 00:11:12;;;;;;;;;;;;;;;-0.69;100.00;100048.59;4959973;28;19921;-76
2021/12/22 00:13:37;;;;;;;;;;;;;;;-0.42;100.00;100053.59;4958061;28;19984;-77
2021/12/22 00:16:03;;;;;;;;;;;;;;;-0.75;100.00;100042.47;4985382;28;20036;-76
2021/12/22 00:18:28;;;;;;;;;;;;;;;-1.19;100.00;100045.34;4984733;28;20012;-76
2021/12/22 00:20:54;;;;;;;;;;;;;;;-0.87;100.00;100037.91;4959484;28;20222;-77
2021/12/22 00:23:19;;;;;;;;;;;;;;;-1.13;100.00;100044.69;4985850;28;19980;-77
2021/12/22 00:25:45;;;;;;;;;;;;;;;-1.09;100.00;100042.31;4959616;28;19949;-77
2021/12/22 00:28:10;;;;;;;;;;;;;;;-0.88;100.00;100051.38;4986819;28;19925;-77
2021/12/22 00:30:37;;;;;;;;;;;;;;;-0.78;100.00;100042.41;4986021;28;19921;-77
2021/12/22 00:33:05;;;;;;;;;;;;;;;-0.95;100.00;100052.84;4943616;28;20507;-77
2021/12/22 00:35:38;;;;;;;;;;;;;;;-1.05;100.00;100048.31;4959101;28;20379;-77
2021/12/22 00:38:07;;;;;;;;;;;;;;;-1.02;100.00;100040.84;4999020;28;19925;-75
2021/12/22 00:40:32;;;;;;;;;;;;;;;-0.95;100.00;100035.16;4982892;28;19921;-76
2021/12/22 00:42:58;;;;;;;;;;;;;;;-0.87;100.00;100038.78;4981601;28;19918;-76
2021/12/22 00:45:25;;;;;;;;;;;;;;;-0.72;100.00;100040.06;4983050;28;19996;-76
2021/12/22 00:47:50;;;;;;;;;;;;;;;-0.60;100.00;100037.88;4982928;28;19928;-76
2021/12/22 00:50:16;;;;;;;;;;;;;;;-0.86;100.00;100030.38;4965780;28;19918;-76
2021/12/22 00:52:42;;;;;;;;;;;;;;;-1.10;100.00;100030.47;4957523;28;19961;-76
2021/12/22 00:55:07;;;;;;;;;;;;;;;-1.21;100.00;100036.00;4957065;28;19963;-76
2021/12/22 00:57:34;;;;;;;;;;;;;;;-1.21;100.00;100030.94;4984305;28;19924;-76
2021/12/22 00:59:59;;;;;;;;;;;;;;;-1.39;100.00;100032.09;4984317;28;20728;-76
2021/12/22 01:02:25;;;;;;;;;;;;;;;-1.51;100.00;100024.09;4956092;28;20000;-76
2021/12/22 01:04:50;;;;;;;;;;;;;;;-1.38;100.00;100036.31;4982162;28;19926;-76
2021/12/22 01:07:15;;;;;;;;;;;;;;;-1.01;100.00;100036.63;4984421;28;19928;-76
2021/12/22 01:09:41;;;;;;;;;;;;;;;-1.15;100.00;100033.69;4984847;28;19918;-76
2021/12/22 01:12:07;;;;;;;;;;;;;;;-1.45;100.00;100033.56;4955081;28;20439;-76
2021/12/22 01:14:33;;;;;;;;;;;;;;;-1.47;100.00;100029.28;4941656;28;19928;-76
2021/12/22 01:17:01;;;;;;;;;;;;;;;-1.56;100.00;100030.66;4957034;28;19929;-76
2021/12/22 01:19:36;;;;;;;;;;;;;;;-1.37;100.00;100030.47;4958714;28;19922;-76
2021/12/22 01:24:48;;;;;;;;;;;;;;;-1.12;100.00;100032.13;4954394;28;20203;-76
2021/12/22 01:27:18;;;;;;;;;;;;;;;-1.19;100.00;100029.31;4953962;28;19979;-76
2021/12/22 01:29:43;;;;;;;;;;;;;;;-1.02;100.00;100037.47;4942611;28;19914;-76
2021/12/22 01:32:11;;;;;;;;;;;;;;;-1.23;100.00;100033.44;4972136;28;20004;-76
2021/12/22 01:34:36;;;;;;;;;;;;;;;-1.00;100.00;100036.69;4960583;28;20415;-76
2021/12/22 01:37:01;;;;;;;;;;;;;;;-1.02;100.00;100037.47;4959043;28;19953;-75
2021/12/22 01:39:27;;;;;;;;;;;;;;;-1.29;100.00;100029.03;4971628;28;19933;-76
2021/12/22 01:41:53;;;;;;;;;;;;;;;-1.48;100.00;100037.69;4953967;28;19922;-76
2021/12/22 01:44:26;;;;;;;;;;;;;;;-1.34;100.00;100038.13;4970359;28;19954;-76
2021/12/22 01:49:49;;;;;;;;;;;;;;;-1.14;100.00;100045.50;4962491;28;19925;-76
2021/12/22 01:52:14;;;;;;;;;;;;;;;-1.11;100.00;100045.59;4959814;28;19992;-76
2021/12/22 01:54:46;;;;;;;;;;;;;;;-1.04;100.00;100050.03;4962535;28;20364;-76
2021/12/22 01:57:13;;;;;;;;;;;;;;;-1.28;100.00;100040.88;4958848;28;19929;-76
2021/12/22 01:59:39;;;;;;;;;;;;;;;-1.02;100.00;100038.31;4962122;28;19934;-76
2021/12/22 02:02:05;;;;;;;;;;;;;;;-1.07;100.00;100034.78;4971055;28;19965;-75
2021/12/22 02:04:31;;;;;;;;;;;;;;;-0.75;100.00;100038.31;4972572;28;19930;-76
2021/12/22 02:06:56;;;;;;;;;;;;;;;-0.90;100.00;100033.63;4970308;28;19922;-76
2021/12/22 02:09:43;;;;;;;;;;;;;;;-0.91;100.00;100036.97;4955007;28;19934;-76
2021/12/22 02:12:09;;;;;;;;;;;;;;;-0.89;100.00;100040.41;4964870;28;19922;-76
2021/12/22 02:14:34;;;;;;;;;;;;;;;-0.73;100.00;100031.63;4953016;28;19945;-76
2021/12/22 02:17:02;;;;;;;;;;;;;;;-1.00;100.00;100036.69;4960119;28;19926;-76
2021/12/22 02:19:27;;;;;;;;;;;;;;;-0.73;100.00;100030.75;4956878;28;19962;-76
2021/12/22 02:21:57;;;;;;;;;;;;;;;-1.18;100.00;100036.13;4968627;28;19976;-76
2021/12/22 02:24:22;;;;;;;;;;;;;;;-1.12;100.00;100026.19;4959849;28;20038;-76
2021/12/22 02:26:59;;;;;;;;;;;;;;;-0.77;100.00;100028.97;4960010;28;20052;-76
2021/12/22 02:29:34;;;;;;;;;;;;;;;-0.74;100.00;100029.88;4958496;28;20407;-76
2021/12/22 02:32:10;;;;;;;;;;;;;;;-0.70;100.00;100025.78;4955218;28;19929;-76
2021/12/22 02:34:44;;;;;;;;;;;;;;;-0.78;100.00;100014.56;4953568;28;19914;-76
2021/12/22 02:37:14;;;;;;;;;;;;;;;-1.03;100.00;100015.50;4967714;28;20446;-76
2021/12/22 02:39:56;;;;;;;;;;;;;;;-0.91;100.00;100016.75;4957959;28;19931;-76
2021/12/22 02:42:24;;;;;;;;;;;;;;;-0.95;100.00;100009.88;4972334;28;20245;-75
2021/12/22 02:44:50;;;;;;;;;;;;;;;-1.23;100.00;100002.22;4971693;28;19969;-76
2021/12/22 02:47:19;;;;;;;;;;;;;;;-1.18;100.00;100009.16;4960334;28;19957;-75
2021/12/22 02:49:44;;;;;;;;;;;;;;;-0.86;100.00;100002.56;4957522;28;20303;-75
2021/12/22 02:52:10;;;;;;;;;;;;;;;-0.74;100.00;100008.81;4953660;28;19921;-76
2021/12/22 02:54:42;;;;;;;;;;;;;;;-0.73;100.00;100001.28;4951947;28;19925;-75
2021/12/22 02:57:20;;;;;;;;;;;;;;;-0.71;100.00;99998.75;4952707;28;19926;-76
2021/12/22 03:00:06;;;;;;;;;;;;;;;-0.40;100.00;99999.66;4958161;28;19976;-76
2021/12/22 03:02:43;;;;;;;;;;;;;;;-0.80;100.00;99993.44;4965366;28;19922;-75
2021/12/22 03:05:09;;;;;;;;;;;;;;;-0.62;100.00;99988.91;4965845;28;20412;-76
2021/12/22 03:07:35;;;;;;;;;;;;;;;-0.90;100.00;99992.31;4968592;28;19932;-76
2021/12/22 03:10:03;;;;;;;;;;;;;;;-1.05;100.00;99997.75;4950452;28;19919;-76
2021/12/22 03:12:31;;;;;;;;;;;;;;;-0.93;100.00;99993.09;4956678;28;19922;-75
2021/12/22 03:14:56;;;;;;;;;;;;;;;-0.94;100.00;99993.88;4940907;28;19945;-75
2021/12/22 03:17:22;;;;;;;;;;;;;;;-0.94;100.00;99996.41;4966765;28;20383;-75
2021/12/22 03:19:47;;;;;;;;;;;;;;;-0.70;100.00;99995.44;4969564;28;20009;-76
2021/12/22 03:22:18;;;;;;;;;;;;;;;-0.68;100.00;99991.28;4961591;28;19999;-76
2021/12/22 03:24:45;;;;;;;;;;;;;;;-1.14;100.00;99983.19;5001529;28;19957;-76
2021/12/22 03:27:10;;;;;;;;;;;;;;;-0.53;100.00;99986.66;5002404;28;19913;-76
2021/12/22 03:29:36;;;;;;;;;;;;;;;-0.74;100.00;99983.50;4976279;28;20302;-76
2021/12/22 03:32:02;;;;;;;;;;;;;;;-0.57;100.00;99976.41;4972830;28;19921;-76
2021/12/22 03:34:27;;;;;;;;;;;;;;;-0.90;100.00;99985.56;5002691;28;19983;-76
2021/12/22 03:36:53;;;;;;;;;;;;;;;-0.78;100.00;99981.69;4988659;28;19924;-76
2021/12/22 03:39:19;;;;;;;;;;;;;;;-0.62;100.00;99983.84;4977975;28;19924;-76
2021/12/22 03:41:45;;;;;;;;;;;;;;;-0.79;100.00;99980.00;5004335;28;19933;-76
2021/12/22 03:44:10;;;;;;;;;;;;;;;-1.04;100.00;99979.25;5004502;28;19921;-76
2021/12/22 03:46:36;;;;;;;;;;;;;;;-0.78;100.00;99976.63;5005544;28;20540;-76
2021/12/22 03:49:02;;;;;;;;;;;;;;;-0.66;100.00;99982.94;4980536;28;19921;-76
2021/12/22 03:51:27;;;;;;;;;;;;;;;-0.66;100.00;99967.75;4964665;28;19921;-76
2021/12/22 03:53:53;;;;;;;;;;;;;;;-0.64;100.00;99960.19;4987979;28;19970;-76
2021/12/22 03:56:19;;;;;;;;;;;;;;;-0.59;100.00;99958.66;4987858;28;19925;-76
2021/12/22 03:58:45;;;;;;;;;;;;;;;-0.78;100.00;99957.25;4966734;28;20473;-75
2021/12/22 04:01:11;;;;;;;;;;;;;;;-0.66;100.00;99966.91;4981465;28;20336;-76
2021/12/22 04:03:38;;;;;;;;;;;;;;;-0.46;100.00;99970.84;4987801;28;19960;-76
2021/12/22 04:06:03;;;;;;;;;;;;;;;-0.56;100.00;99962.94;4988748;28;21013;-76
2021/12/22 04:08:29;;;;;;;;;;;;;;;-0.63;100.00;99957.72;4981963;28;19944;-75
2021/12/22 04:10:54;;;;;;;;;;;;;;;-0.52;100.00;99965.59;5007655;28;19929;-77
2021/12/22 04:13:20;;;;;;;;;;;;;;;-0.56;100.00;99962.94;4981879;28;19991;-77
2021/12/22 04:15:45;;;;;;;;;;;;;;;-1.01;100.00;99958.25;4990038;28;19925;-77
2021/12/22 04:18:11;;;;;;;;;;;;;;;-1.99;100.00;99966.09;4981997;28;19924;-77
2021/12/22 04:20:36;;;;;;;;;;;;;;;-2.46;100.00;99967.81;4987199;28;19922;-77
2021/12/22 04:23:02;;;;;;;;;;;;;;;-2.47;100.00;99968.63;4965520;28;19928;-77
2021/12/22 04:25:28;;;;;;;;;;;;;;;-2.40;100.00;99973.09;4960146;28;19929;-77
2021/12/22 04:27:55;;;;;;;;;;;;;;;-2.36;100.00;99975.78;4964305;28;19922;-76
2021/12/22 04:30:21;;;;;;;;;;;;;;;-2.53;100.00;99987.78;4962411;28;20287;-76
2021/12/22 04:32:47;;;;;;;;;;;;;;;-2.13;100.00;99984.16;4948441;28;19922;-77
2021/12/22 04:35:12;;;;;;;;;;;;;;;-2.01;100.00;99985.38;4962306;28;20691;-77
2021/12/22 04:37:37;;;;;;;;;;;;;;;-1.78;100.00;99987.03;4963299;28;19926;-77
2021/12/22 04:40:03;;;;;;;;;;;;;;;-1.92;100.00;99988.22;4961578;28;19964;-77
2021/12/22 04:42:29;;;;;;;;;;;;;;;-1.54;100.00;99983.59;4989029;28;19929;-77
2021/12/22 04:44:56;;;;;;;;;;;;;;;-1.40;100.00;99989.06;4969373;28;20271;-77
2021/12/22 04:47:22;;;;;;;;;;;;;;;-1.14;100.00;99982.31;4992826;28;19921;-77
2021/12/22 04:49:47;;;;;;;;;;;;;;;-1.12;100.00;99980.69;4967218;28;19928;-77
2021/12/22 04:52:17;;;;;;;;;;;;;;;-0.63;100.00;99977.09;4989499;28;20315;-77
2021/12/22 04:55:02;;;;;;;;;;;;;;;-1.04;100.00;99974.19;4990930;28;19922;-77
2021/12/22 04:57:27;;;;;;;;;;;;;;;-0.86;100.00;99976.44;4991290;28;19922;-77
2021/12/22 04:59:53;;;;;;;;;;;;;;;-0.75;100.00;99971.66;4992655;28;19926;-77
2021/12/22 05:02:18;;;;;;;;;;;;;;;-0.58;100.00;99974.69;4991908;28;19918;-77
2021/12/22 05:04:43;;;;;;;;;;;;;;;-0.76;100.00;99975.88;4964055;28;19929;-77
2021/12/22 05:07:09;;;;;;;;;;;;;;;-0.66;100.00;99974.50;4965216;28;19926;-77
2021/12/22 05:09:34;;;;;;;;;;;;;;;-0.95;100.00;99978.69;4963840;28;19918;-77
2021/12/22 05:12:00;;;;;;;;;;;;;;;-1.38;100.00;99975.69;4989769;28;20023;-77
2021/12/22 05:14:25;;;;;;;;;;;;;;;-1.22;100.00;99968.59;4990640;28;19917;-77
2021/12/22 05:16:53;;;;;;;;;;;;;;;-1.47;100.00;99973.72;4991824;28;19913;-77
2021/12/22 05:19:18;;;;;;;;;;;;;;;-1.81;100.00;99976.81;4962492;28;19977;-77
2021/12/22 05:21:44;;;;;;;;;;;;;;;-1.95;100.00;99983.06;4991399;28;19926;-77
2021/12/22 05:24:09;;;;;;;;;;;;;;;-1.66;100.00;99993.31;4988880;28;20020;-77
2021/12/22 05:26:35;;;;;;;;;;;;;;;-1.65;100.00;99993.31;4990289;28;19929;-77
2021/12/22 05:29:00;;;;;;;;;;;;;;;-1.32;100.00;99988.53;4986850;28;19948;-77
2021/12/22 05:31:27;;;;;;;;;;;;;;;-1.01;100.00;99989.44;4960049;28;20013;-77
2021/12/22 05:33:52;;;;;;;;;;;;;;;-1.02;100.00;99992.81;4959224;28;19988;-76
2021/12/22 05:36:18;;;;;;;;;;;;;;;-0.95;100.00;99987.13;4985405;28;20372;-77
2021/12/22 05:38:43;;;;;;;;;;;;;;;-1.15;100.00;99990.72;4986396;28;20370;-77
2021/12/22 05:41:08;;;;;;;;;;;;;;;-1.27;100.00;99979.41;4984847;28;19924;-77
2021/12/22 05:43:34;;;;;;;;;;;;;;;-1.08;100.00;99975.75;4956252;28;20263;-77
2021/12/22 05:45:59;;;;;;;;;;;;;;;-1.71;100.00;99981.38;4985998;28;19918;-77
2021/12/22 05:48:24;;;;;;;;;;;;;;;-1.87;100.00;99989.25;4989000;28;19922;-77
2021/12/22 05:50:53;;;;;;;;;;;;;;;-1.78;100.00;99992.09;4987971;28;19948;-77
2021/12/22 05:53:19;;;;;;;;;;;;;;;-1.52;100.00;99989.56;4964588;28;20016;-78
2021/12/22 05:55:44;;;;;;;;;;;;;;;-1.58;100.00;99986.81;4987041;28;20087;-77
2021/12/22 05:58:10;;;;;;;;;;;;;;;-1.44;100.00;99982.19;4963323;28;19948;-77
2021/12/22 06:00:35;;;;;;;;;;;;;;;-1.30;100.00;99981.84;4988153;28;20055;-77
2021/12/22 06:03:00;;;;;;;;;;;;;;;-1.30;100.00;99965.81;4961895;28;19973;-77
2021/12/22 06:05:26;;;;;;;;;;;;;;;-1.17;100.00;99977.16;4974550;28;19918;-77
2021/12/22 06:07:51;;;;;;;;;;;;;;;-0.90;100.00;99962.81;4989200;28;19972;-77
2021/12/22 06:10:17;;;;;;;;;;;;;;;-0.79;100.00;99964.81;4988259;28;20724;-77
2021/12/22 06:12:42;;;;;;;;;;;;;;;-0.78;100.00;99951.34;4962199;28;19977;-77
2021/12/22 06:15:08;;;;;;;;;;;;;;;-0.75;100.00;99949.78;4990991;28;19921;-77
2021/12/22 06:17:33;;;;;;;;;;;;;;;-0.92;100.00;99941.69;4990243;28;19980;-77
2021/12/22 06:19:58;;;;;;;;;;;;;;;-0.95;100.00;99941.59;4991241;28;19997;-77
2021/12/22 06:22:24;;;;;;;;;;;;;;;-1.21;100.00;99929.84;4980462;28;19921;-77
2021/12/22 06:24:50;;;;;;;;;;;;;;;-1.46;100.00;99934.16;5008754;28;19921;-77
2021/12/22 06:27:15;;;;;;;;;;;;;;;-1.19;100.00;99933.28;4990092;28;19979;-77
2021/12/22 06:29:40;;;;;;;;;;;;;;;-2.33;100.00;99942.22;5008979;28;19971;-77
2021/12/22 06:32:06;;;;;;;;;;;;;;;-1.91;100.00;99939.47;4990943;28;19978;-77
2021/12/22 06:34:31;;;;;;;;;;;;;;;-1.73;100.00;99942.59;5008402;28;19925;-77
2021/12/22 06:36:57;;;;;;;;;;;;;;;-2.72;100.00;99955.13;4971832;28;19996;-77
2021/12/22 06:39:22;;;;;;;;;;;;;;;-2.50;100.00;99946.69;5010198;28;20334;-77
2021/12/22 06:41:48;;;;;;;;;;;;;;;-2.20;100.00;99951.94;4970855;28;20004;-77
2021/12/22 06:44:14;;;;;;;;;;;;;;;-2.75;100.00;99952.50;4983717;28;19928;-77
2021/12/22 06:46:41;;;;;;;;;;;;;;;-3.00;100.00;99963.34;4991116;28;19931;-77
2021/12/22 06:49:07;;;;;;;;;;;;;;;-2.66;100.00;99960.41;4982139;28;19913;-77
2021/12/22 06:51:32;;;;;;;;;;;;;;;-2.41;100.00;99966.34;5008385;28;19921;-77
2021/12/22 06:53:58;;;;;;;;;;;;;;;-2.65;100.00;99969.69;5008783;28;19920;-77
2021/12/22 06:56:23;;;;;;;;;;;;;;;-3.20;100.00;99967.59;4980493;28;19961;-77
2021/12/22 06:58:48;;;;;;;;;;;;;;;-2.71;100.00;99979.56;5008155;28;19995;-77
2021/12/22 07:01:18;;;;;;;;;;;;;;;-2.07;100.00;99967.53;5008510;28;20316;-78
2021/12/22 07:03:44;;;;;;;;;;;;;;;-2.01;100.00;99972.75;5010485;28;19960;-77
2021/12/22 07:06:09;;;;;;;;;;;;;;;-2.08;100.00;99968.31;5008829;28;19921;-77
2021/12/22 07:08:34;;;;;;;;;;;;;;;-2.20;100.00;99971.28;5007341;28;20359;-77
2021/12/22 07:11:00;;;;;;;;;;;;;;;-2.12;100.00;99965.69;4980893;28;19918;-77
2021/12/22 07:13:25;;;;;;;;;;;;;;;-2.11;100.00;99966.53;4990048;28;20350;-77
2021/12/22 07:15:51;;;;;;;;;;;;;;;-2.08;100.00;99965.78;4983518;28;20271;-77
2021/12/22 07:18:16;;;;;;;;;;;;;;;-2.21;100.00;99959.44;4990117;28;19917;-77
2021/12/22 07:20:42;;;;;;;;;;;;;;;-2.36;100.00;99959.78;4974717;28;20647;-77
2021/12/22 07:23:07;;;;;;;;;;;;;;;-2.59;100.00;99952.25;4972009;28;19917;-77
2021/12/22 07:25:32;;;;;;;;;;;;;;;-2.42;100.00;99962.09;4971947;28;19918;-77
2021/12/22 07:27:58;;;;;;;;;;;;;;;-2.57;100.00;99955.69;4962045;28;20615;-77
2021/12/22 07:30:23;;;;;;;;;;;;;;;-2.46;100.00;99960.25;4969401;28;19920;-77
2021/12/22 07:32:49;;;;;;;;;;;;;;;-2.36;100.00;99959.78;4969896;28;20394;-77
2021/12/22 07:35:15;;;;;;;;;;;;;;;-2.18;100.00;99952.84;4953420;28;19914;-77
2021/12/22 07:37:40;;;;;;;;;;;;;;;-2.20;100.00;99946.03;4955576;28;20489;-77
2021/12/22 07:40:07;;;;;;;;;;;;;;;-2.02;100.00;99945.81;4956228;28;19922;-77
2021/12/22 07:42:32;;;;;;;;;;;;;;;-2.16;100.00;99943.69;4973767;28;19922;-77
2021/12/22 07:44:58;;;;;;;;;;;;;;;-1.85;100.00;99939.63;4969644;28;20360;-77
2021/12/22 07:47:23;;;;;;;;;;;;;;;-1.56;100.00;99932.16;4953540;28;19914;-77
2021/12/22 07:49:50;;;;;;;;;;;;;;;-2.27;100.00;99923.94;4972647;28;19921;-77
2021/12/22 07:52:15;;;;;;;;;;;;;;;-2.36;100.00;99929.50;4959280;28;20371;-76
2021/12/22 07:54:41;;;;;;;;;;;;;;;-2.03;100.00;99923.88;4954667;28;19918;-77
2021/12/22 07:57:06;;;;;;;;;;;;;;;-2.40;100.00;99932.72;4971999;28;19950;-77
2021/12/22 07:59:31;;;;;;;;;;;;;;;-1.93;100.00;99936.03;4973521;28;19941;-77
2021/12/22 08:01:58;;;;;;;;;;;;;;;-2.07;100.00;99933.03;4969150;28;19918;-77
2021/12/22 08:04:23;;;;;;;;;;;;;;;-1.62;100.00;99942.06;4957120;28;20399;-77
2021/12/22 08:06:50;;;;;;;;;;;;;;;-1.52;100.00;99939.88;4956368;28;19953;-77
2021/12/22 08:09:15;;;;;;;;;;;;;;;-1.50;100.00;99942.47;4958779;28;19918;-77
2021/12/22 08:11:40;;;;;;;;;;;;;;;-1.44;100.00;99941.78;4978282;28;19915;-78
2021/12/22 08:14:06;;;;;;;;;;;;;;;-1.46;100.00;99954.34;4980342;28;19977;-77
2021/12/22 08:16:31;;;;;;;;;;;;;;;-1.42;100.00;99956.19;4963799;28;19914;-77
2021/12/22 08:18:57;;;;;;;;;;;;;;;-1.52;100.00;99962.63;4980788;28;20320;-78
2021/12/22 08:21:22;;;;;;;;;;;;;;;-1.52;100.00;99955.03;4983865;28;19945;-78
2021/12/22 08:23:47;;;;;;;;;;;;;;;-1.16;100.00;99951.09;4988010;28;19948;-78
2021/12/22 08:26:13;;;;;;;;;;;;;;;-0.88;100.00;99951.09;5000900;28;20447;-77
2021/12/22 08:28:38;;;;;;;;;;;;;;;-1.16;100.00;99951.09;4991132;28;19980;-77
2021/12/22 08:31:03;;;;;;;;;;;;;;;-0.90;100.00;99952.72;4989721;28;20004;-77
2021/12/22 08:33:31;;;;;;;;;;;;;;;-0.80;100.00;99952.97;4989859;28;20021;-77
2021/12/22 08:38:51;;;;;;;;;;;;;;;-0.67;100.00;99944.94;4994507;28;19931;-77
2021/12/22 08:41:18;;;;;;;;;;;;;;;-0.44;100.00;99936.28;4994220;28;19971;-78
2021/12/22 08:43:43;;;;;;;;;;;;;;;-0.53;100.00;99932.66;4977417;28;19914;-78
2021/12/22 08:46:09;;;;;;;;;;;;;;;-0.56;100.00;99928.38;4995190;28;19917;-78
2021/12/22 08:48:34;;;;;;;;;;;;;;;-0.70;100.00;99929.69;4980234;28;19940;-78
2021/12/22 08:51:00;;;;;;;;;;;;;;;-0.28;100.00;99924.06;4997442;28;19985;-77
2021/12/22 08:53:25;;;;;;;;;;;;;;;-0.06;100.00;99925.50;5000484;28;19967;-77
2021/12/22 08:55:50;;;;;;;;;;;;;;;0.09;100.00;99917.41;5018031;28;19925;-77
2021/12/22 08:58:16;;;;;;;;;;;;;;;-0.18;100.00;99920.09;5000351;28;19918;-78
2021/12/22 09:00:42;;;;;;;;;;;;;;;-0.04;100.00;99924.72;4991896;28;19913;-78
2021/12/22 09:03:07;;;;;;;;;;;;;;;-0.21;100.00;99910.75;5002663;28;20275;-77
2021/12/22 09:05:33;;;;;;;;;;;;;;;-0.01;100.00;99918.84;5022205;28;19917;-78
2021/12/22 09:07:58;;;;;;;;;;;;;;;-0.02;100.00;99912.09;5021531;28;19917;-77
2021/12/22 09:10:23;;;;;;;;;;;;;;;0.02;100.00;99908.78;5021611;28;19917;-78
2021/12/22 09:12:49;;;;;;;;;;;;;;;0.04;100.00;99908.84;4993359;28;19971;-78
2021/12/22 09:15:17;;;;;;;;;;;;;;;0.03;100.00;99900.41;5003632;28;19917;-78
2021/12/22 09:17:42;;;;;;;;;;;;;;;-0.08;100.00;99895.06;4974006;28;19920;-78
2021/12/22 09:20:07;;;;;;;;;;;;;;;-0.03;100.00;99903.63;5002793;28;20016;-77
2021/12/22 09:22:33;;;;;;;;;;;;;;;0.03;100.00;99902.09;4993963;28;19918;-77
2021/12/22 09:24:58;;;;;;;;;;;;;;;0.04;100.00;99898.72;5020968;28;19917;-77
2021/12/22 09:27:23;;;;;;;;;;;;;;;0.14;100.00;99898.13;5002963;28;19921;-78
2021/12/22 09:29:49;;;;;;;;;;;;;;;0.43;100.00;99903.03;4993776;28;19921;-78
2021/12/22 09:32:16;;;;;;;;;;;;;;;0.61;100.00;99893.31;5002035;28;19924;-78
2021/12/22 09:34:44;;;;;;;;;;;;;;;0.16;100.00;99889.75;4993764;28;20001;-78
2021/12/22 09:37:10;;;;;;;;;;;;;;;0.43;100.00;99890.34;4986287;28;19922;-78
2021/12/22 09:39:35;;;;;;;;;;;;;;;0.78;100.00;99892.00;5020152;28;19917;-78
2021/12/22 09:42:01;;;;;;;;;;;;;;;0.97;100.00;99889.88;4991377;28;19902;-78
2021/12/22 09:44:31;;;;;;;;;;;;;;;0.62;100.00;99889.97;4978850;28;19918;-78
2021/12/22 09:46:57;;;;;;;;;;;;;;;0.38;100.00;99888.56;5019208;28;19918;-78
2021/12/22 09:52:23;;;;;;;;;;;;;;;0.87;100.00;99877.78;4994543;28;19925;-78
2021/12/22 09:54:52;;;;;;;;;;;;;;;1.09;100.00;99864.75;4987286;28;19913;-78
2021/12/22 09:57:19;;;;;;;;;;;;;;;1.10;100.00;99871.53;5002569;28;19924;-78
2021/12/22 09:59:45;;;;;;;;;;;;;;;0.89;100.00;99871.06;4992080;28;19937;-78
2021/12/22 10:02:10;;;;;;;;;;;;;;;1.28;100.00;99863.44;5019710;28;19993;-78
2021/12/22 10:04:35;;;;;;;;;;;;;;;1.56;100.00;99871.56;4993182;28;20383;-78
2021/12/22 10:07:01;;;;;;;;;;;;;;;1.44;100.00;99872.19;5019289;28;19941;-78
2021/12/22 10:09:26;;;;;;;;;;;;;;;1.00;100.00;99879.78;5002834;28;19914;-78
2021/12/22 10:11:52;;;;;;;;;;;;;;;1.45;100.00;99881.50;5003235;28;19918;-78
2021/12/22 10:14:25;;;;;;;;;;;;;;;1.04;100.00;99871.41;5020341;28;19924;-77
2021/12/22 10:16:52;;;;;;;;;;;;;;;1.58;100.00;99865.69;4992247;28;19945;-77
2021/12/22 10:19:18;;;;;;;;;;;;;;;1.65;100.00;99859.88;5020802;28;19932;-78
2021/12/22 10:22:01;;;;;;;;;;;;;;;1.77;100.00;99855.84;4985863;28;19925;-78
2021/12/22 10:24:38;;;;;;;;;;;;;;;2.25;100.00;99857.47;4993411;28;19992;-78
2021/12/22 10:27:04;;;;;;;;;;;;;;;2.59;100.00;99857.97;4991838;28;19936;-77
2021/12/22 10:29:31;;;;;;;;;;;;;;;2.48;100.00;99858.66;4991821;28;19921;-77
2021/12/22 10:31:59;;;;;;;;;;;;;;;2.16;100.00;99854.78;4993217;28;19913;-76
2021/12/22 10:34:24;;;;;;;;;;;;;;;2.65;100.00;99855.53;4991786;28;19921;-77
2021/12/22 10:36:51;;;;;;;;;;;;;;;2.18;100.00;99858.22;4992085;28;20282;-78
2021/12/22 10:39:25;;;;;;;;;;;;;;;2.01;100.00;99861.34;4999594;28;19917;-78
2021/12/22 10:41:50;;;;;;;;;;;;;;;1.85;100.00;99865.31;4976858;28;19976;-77
2021/12/22 10:44:16;;;;;;;;;;;;;;;2.76;100.00;99866.72;4991100;28;19913;-78
2021/12/22 10:46:41;;;;;;;;;;;;;;;2.29;100.00;99866.88;4980211;28;19917;-78
2021/12/22 10:49:17;;;;;;;;;;;;;;;2.93;100.00;99869.47;5020779;28;19917;-78
2021/12/22 10:51:47;;;;;;;;;;;;;;;3.16;100.00;99863.81;5020655;28;19925;-78
2021/12/22 10:54:14;;;;;;;;;;;;;;;2.85;100.00;99864.28;4992616;28;19917;-77
2021/12/22 10:56:44;;;;;;;;;;;;;;;3.66;100.00;99860.94;5002676;28;19921;-77
2021/12/22 10:59:19;;;;;;;;;;;;;;;2.80;100.00;99857.41;5020317;28;20206;-78
2021/12/22 11:01:52;;;;;;;;;;;;;;;3.91;100.00;99851.84;5001789;28;19928;-78
2021/12/22 11:04:21;;;;;;;;;;;;;;;2.93;100.00;99849.94;5017819;28;19977;-79
2021/12/22 11:06:49;;;;;;;;;;;;;;;2.76;100.00;99845.47;5003088;28;19969;-78
2021/12/22 11:09:15;;;;;;;;;;;;;;;2.53;100.00;99845.16;4995693;28;19933;-77
2021/12/22 11:11:42;;;;;;;;;;;;;;;2.51;100.00;99835.84;5001833;28;19924;-78
2021/12/22 11:14:12;;;;;;;;;;;;;;;3.20;100.00;99830.75;4992122;28;20326;-77
2021/12/22 11:16:57;;;;;;;;;;;;;;;3.07;100.00;99829.75;4991631;28;19968;-77
2021/12/22 11:19:24;;;;;;;;;;;;;;;3.86;100.00;99830.56;5000605;28;20001;-77
2021/12/22 11:22:09;;;;;;;;;;;;;;;3.41;100.00;99824.19;4979497;28;19928;-77
2021/12/22 11:24:37;;;;;;;;;;;;;;;3.25;100.00;99821.47;5002023;28;19985;-77
2021/12/22 11:27:03;;;;;;;;;;;;;;;2.39;100.00;99820.41;4999069;28;19917;-77
2021/12/22 11:29:28;;;;;;;;;;;;;;;2.87;100.00;99824.47;4997893;28;19924;-77
2021/12/22 11:31:54;;;;;;;;;;;;;;;2.71;100.00;99830.16;4988817;28;19918;-77
2021/12/22 11:34:20;;;;;;;;;;;;;;;3.34;100.00;99826.66;4989979;28;19928;-79
2021/12/22 11:36:45;;;;;;;;;;;;;;;2.35;100.00;99825.41;4999876;28;19917;-77
2021/12/22 11:39:11;;;;;;;;;;;;;;;2.71;100.00;99830.16;5015982;28;19924;-79
2021/12/22 11:41:43;;;;;;;;;;;;;;;2.87;100.00;99837.19;4988713;28;19914;-77
2021/12/22 11:44:09;;;;;;;;;;;;;;;2.99;100.00;99830.50;5015718;28;20477;-77
2021/12/22 11:46:35;;;;;;;;;;;;;;;3.09;100.00;99837.41;4997277;28;19917;-78
2021/12/22 11:49:00;;;;;;;;;;;;;;;3.37;100.00;99832.63;4986057;28;19927;-78
2021/12/22 11:51:26;;;;;;;;;;;;;;;3.52;100.00;99814.97;4998361;28;19945;-78
2021/12/22 11:53:53;;;;;;;;;;;;;;;3.40;100.00;99814.84;4987676;28;19914;-77
2021/12/22 11:56:40;;;;;;;;;;;;;;;4.06;100.00;99811.19;4998900;28;19967;-78
2021/12/22 11:59:06;;;;;;;;;;;;;;;4.25;100.00;99788.38;4999163;28;19921;-77
2021/12/22 12:01:31;;;;;;;;;;;;;;;3.67;100.00;99787.09;4985295;28;19928;-77
2021/12/22 12:04:15;;;;;;;;;;;;;;;3.33;100.00;99798.63;4982810;28;19917;-77
2021/12/22 12:06:50;;;;;;;;;;;;;;;3.27;100.00;99789.25;5003018;28;20052;-76
2021/12/22 12:09:15;;;;;;;;;;;;;;;3.56;100.00;99781.06;5001838;28;19928;-78
2021/12/22 12:12:04;;;;;;;;;;;;;;;3.51;100.00;99783.56;4986532;28;19913;-77
2021/12/22 12:14:54;;;;;;;;;;;;;;;3.29;100.00;99782.50;4995237;28;19924;-76
2021/12/22 12:23:16;;;;;;;;;;;;;;;3.65;100.00;99773.50;5019560;28;19948;-77
2021/12/22 12:25:41;;;;;;;;;;;;;;;3.76;100.00;99765.91;5015427;28;19956;-78
2021/12/22 12:28:13;;;;;;;;;;;;;;;4.06;100.00;99759.34;4997960;28;19944;-78
2021/12/22 12:30:45;;;;;;;;;;;;;;;4.23;100.00;99764.56;4986929;28;20392;-77
2021/12/22 12:33:11;;;;;;;;;;;;;;;4.09;100.00;99754.28;5012400;28;19973;-77
2021/12/22 12:35:38;;;;;;;;;;;;;;;4.75;100.00;99746.97;4996377;28;19918;-76
2021/12/22 12:38:15;;;;;;;;;;;;;;;4.40;100.00;99757.84;4996378;28;20015;-77
2021/12/22 12:41:10;;;;;;;;;;;;;;;3.46;100.00;99769.06;4990277;28;19913;-77
2021/12/22 12:43:46;;;;;;;;;;;;;;;4.46;100.00;99762.13;5017680;28;19921;-77
2021/12/22 12:46:21;;;;;;;;;;;;;;;3.57;100.00;99754.75;5016340;28;19952;-78
2021/12/22 12:48:47;;;;;;;;;;;;;;;4.54;100.00;99760.47;5016659;28;19914;-77
2021/12/22 12:51:13;;;;;;;;;;;;;;;4.68;100.00;99751.19;4989535;28;20282;-77
2021/12/22 12:53:42;;;;;;;;;;;;;;;4.49;100.00;99754.47;4971674;28;19929;-77
2021/12/22 12:56:08;;;;;;;;;;;;;;;4.42;100.00;99753.59;4997935;28;19921;-77